createdAt,value
2018-12-01T13:36:41.523Z,72.90
2018-12-01T13:39:10.898Z,72.30
2018-12-01T13:41:40.134Z,72.50
2018-12-01T13:44:09.421Z,72.40
2018-12-01T13:46:38.819Z,72.50
2018-12-01T13:49:08.834Z,71.60
2018-12-01T13:51:38.515Z,70.40
2018-12-01T13:54:07.966Z,70.90
2018-12-01T13:56:38.023Z,71.90
2018-12-01T13:59:07.409Z,70.50
2018-12-01T14:01:37.001Z,70.20
2018-12-01T14:04:07.029Z,70.20
2018-12-01T14:06:36.726Z,69.90
2018-12-01T14:09:08.190Z,70.30
2018-12-01T14:11:37.667Z,71.30
2018-12-01T14:14:07.065Z,70.90
2018-12-01T14:16:36.601Z,71.20
2018-12-01T14:19:06.279Z,70.50
2018-12-01T14:21:35.859Z,71.90
2018-12-01T14:24:04.976Z,72.50
2018-12-01T14:26:34.643Z,72.60
2018-12-01T14:29:04.016Z,73.00
2018-12-01T14:31:33.238Z,73.10
2018-12-01T14:34:03.061Z,73.30
2018-12-01T14:36:32.304Z,73.70
2018-12-01T14:39:01.884Z,73.40
2018-12-01T14:41:31.473Z,73.60
2018-12-01T14:44:01.124Z,73.60
2018-12-01T14:46:30.757Z,73.80
2018-12-01T14:49:00.667Z,73.70
2018-12-01T14:51:30.287Z,73.80
2018-12-01T14:54:00.203Z,73.70
2018-12-01T14:56:29.747Z,73.90
2018-12-01T14:59:00.128Z,74.00
2018-12-01T15:01:29.759Z,74.20
2018-12-01T15:03:59.449Z,74.30
2018-12-01T15:06:28.654Z,74.30
2018-12-01T15:08:58.130Z,74.20
2018-12-01T15:11:27.659Z,74.30
2018-12-01T15:13:57.199Z,74.30
2018-12-01T15:16:27.170Z,74.30
2018-12-01T15:18:56.377Z,74.10
2018-12-01T15:21:25.807Z,74.10
2018-12-01T15:23:55.319Z,74.30
2018-12-01T15:26:24.861Z,74.40
2018-12-01T15:28:55.305Z,74.60
2018-12-01T15:31:24.834Z,74.70
2018-12-01T15:33:54.826Z,74.90
2018-12-01T15:36:24.923Z,75.10
2018-12-01T15:38:54.761Z,75.30
2018-12-01T15:41:24.125Z,75.20
2018-12-01T15:43:53.503Z,75.30
2018-12-01T15:46:23.082Z,75.10
2018-12-01T15:48:53.331Z,74.90
2018-12-01T15:51:22.605Z,75.00
2018-12-01T15:53:51.977Z,75.30
2018-12-01T15:56:21.431Z,75.40
2018-12-01T15:58:51.391Z,75.60
2018-12-01T16:01:21.306Z,75.40
2018-12-01T16:03:50.544Z,75.40
2018-12-01T16:06:20.229Z,75.60
2018-12-01T16:08:49.171Z,75.70
2018-12-01T16:11:18.593Z,75.60
2018-12-01T16:13:47.718Z,75.40
2018-12-01T16:16:17.476Z,75.30
2018-12-01T16:18:48.112Z,75.50
2018-12-01T16:21:17.639Z,75.50
2018-12-01T16:23:48.395Z,75.50
2018-12-01T16:26:17.599Z,75.60
2018-12-01T16:28:46.791Z,75.80
2018-12-01T16:31:16.644Z,75.90
2018-12-01T16:33:46.390Z,75.80
2018-12-01T16:36:17.348Z,75.60
2018-12-01T16:38:47.029Z,75.50
2018-12-01T16:41:22.937Z,75.70
2018-12-01T16:43:52.050Z,76.50
2018-12-01T16:46:23.299Z,76.20
2018-12-01T16:48:52.617Z,76.40
2018-12-01T16:51:22.310Z,76.40
2018-12-01T16:53:52.279Z,76.50
2018-12-01T16:56:22.148Z,76.70
2018-12-01T16:58:52.057Z,76.70
2018-12-01T17:01:22.038Z,76.70
2018-12-01T17:03:51.540Z,76.90
2018-12-01T17:06:20.950Z,77.20
2018-12-01T17:08:51.055Z,77.20
2018-12-01T17:11:21.191Z,77.30
2018-12-01T17:13:50.885Z,77.30
2018-12-01T17:16:20.704Z,77.40
2018-12-01T17:18:50.344Z,77.40
2018-12-01T17:21:19.754Z,77.40
2018-12-01T17:23:55.080Z,77.40
2018-12-01T17:26:24.476Z,77.50
2018-12-01T17:28:53.952Z,77.20
2018-12-01T17:31:23.834Z,77.30
2018-12-01T17:33:53.335Z,77.40
2018-12-01T17:36:22.952Z,77.40
2018-12-01T17:38:52.726Z,77.60
2018-12-01T17:41:25.124Z,77.60
2018-12-01T17:43:56.309Z,77.60
2018-12-01T17:46:26.845Z,77.50
2018-12-01T17:48:56.046Z,77.50
2018-12-01T17:51:25.472Z,77.40
2018-12-01T17:53:58.086Z,77.40
2018-12-01T17:56:27.746Z,77.30
2018-12-01T17:58:57.173Z,77.40
2018-12-01T18:01:26.910Z,77.30
2018-12-01T18:03:58.018Z,77.20
2018-12-01T18:06:32.291Z,77.20
2018-12-01T18:09:06.729Z,77.30
2018-12-01T18:11:36.242Z,77.30
2018-12-01T18:14:07.243Z,77.40
2018-12-01T18:16:36.981Z,77.50
2018-12-01T18:19:06.383Z,77.30
2018-12-01T18:21:35.879Z,77.30
2018-12-01T18:24:05.767Z,77.30
2018-12-01T18:26:35.433Z,76.90
2018-12-01T18:29:05.086Z,76.90
2018-12-01T18:31:35.216Z,76.70
2018-12-01T18:34:19.096Z,76.90
2018-12-01T18:36:48.882Z,76.80
2018-12-01T18:39:19.369Z,76.70
2018-12-01T18:41:49.264Z,76.80
2018-12-01T18:44:19.385Z,77.10
2018-12-01T18:46:48.881Z,77.10
2018-12-01T18:49:18.270Z,76.90
2018-12-01T18:51:49.534Z,77.10
2018-12-01T18:54:19.116Z,77.40
2018-12-01T18:56:48.417Z,77.70
2018-12-01T18:59:18.677Z,78.50
2018-12-01T19:01:49.719Z,77.90
2018-12-01T19:04:18.951Z,78.10
2018-12-01T19:06:49.407Z,78.00
2018-12-01T19:09:18.950Z,77.80
2018-12-01T19:11:48.482Z,77.80
2018-12-01T19:14:18.741Z,77.90
2018-12-01T19:16:48.515Z,78.20
2018-12-01T19:19:18.677Z,78.40
2018-12-01T19:21:48.220Z,78.50
2018-12-01T19:24:17.507Z,78.60
2018-12-01T19:26:46.976Z,78.50
2018-12-01T19:29:16.670Z,78.40
2018-12-01T19:31:46.180Z,78.50
2018-12-01T19:34:15.927Z,78.50
2018-12-01T19:36:47.746Z,78.40
2018-12-01T19:39:17.373Z,78.50
2018-12-01T19:41:46.846Z,78.50
2018-12-01T19:44:20.200Z,78.50
2018-12-01T19:46:49.675Z,78.50
2018-12-01T19:49:19.289Z,78.60
2018-12-01T19:51:49.294Z,78.60
2018-12-01T19:54:18.641Z,78.50
2018-12-01T19:56:48.057Z,78.10
2018-12-01T19:59:17.876Z,77.70
2018-12-01T20:01:47.570Z,77.50
2018-12-01T20:04:17.223Z,77.30
2018-12-01T20:06:47.568Z,77.30
2018-12-01T20:09:17.556Z,77.30
2018-12-01T20:11:46.739Z,77.20
2018-12-01T20:14:17.865Z,77.40
2018-12-01T20:16:49.932Z,77.50
2018-12-01T20:19:19.944Z,77.70
2018-12-01T20:21:49.301Z,77.80
2018-12-01T20:24:18.927Z,77.90
2018-12-01T20:26:48.910Z,77.90
2018-12-01T20:29:18.824Z,78.30
2018-12-01T20:31:48.954Z,78.20
2018-12-01T20:34:18.778Z,78.20
2018-12-01T20:36:51.893Z,78.20
2018-12-01T20:39:27.222Z,78.30
2018-12-01T20:41:57.473Z,78.50
2018-12-01T20:44:26.852Z,77.90
2018-12-01T20:46:56.245Z,77.70
2018-12-01T20:49:26.075Z,77.60
2018-12-01T20:51:55.419Z,77.60
2018-12-01T20:54:36.420Z,77.70
2018-12-01T20:57:11.932Z,77.50
2018-12-01T20:59:41.188Z,77.70
2018-12-01T21:02:10.969Z,77.40
2018-12-01T21:04:40.677Z,77.40
2018-12-01T21:07:10.417Z,77.30
2018-12-01T21:09:40.455Z,77.20
2018-12-01T21:12:11.092Z,77.10
2018-12-01T21:14:40.976Z,76.90
2018-12-01T21:17:11.244Z,76.80
2018-12-01T21:19:40.914Z,76.90
2018-12-01T21:22:10.484Z,77.20
2018-12-01T21:24:40.380Z,77.30
2018-12-01T21:27:09.789Z,77.50
2018-12-01T21:29:39.732Z,77.70
2018-12-01T21:32:09.433Z,77.60
2018-12-01T21:34:39.770Z,77.20
2018-12-01T21:37:09.216Z,77.40
2018-12-01T21:39:38.590Z,77.40
2018-12-01T21:42:08.287Z,77.70
2018-12-01T21:44:37.800Z,77.80
2018-12-01T21:47:07.353Z,77.90
2018-12-01T21:49:37.647Z,77.60
2018-12-01T21:52:07.454Z,77.40
2018-12-01T21:54:37.641Z,77.40
2018-12-01T21:57:07.214Z,77.30
2018-12-01T21:59:37.634Z,77.30
2018-12-01T22:02:08.532Z,77.30
2018-12-01T22:04:38.542Z,77.60
2018-12-01T22:07:07.950Z,77.50
2018-12-01T22:09:37.916Z,78.10
2018-12-01T22:12:07.061Z,78.20
2018-12-01T22:14:36.811Z,78.30
2018-12-01T22:17:07.214Z,78.40
2018-12-01T22:19:36.624Z,78.40
2018-12-01T22:22:06.035Z,78.40
2018-12-01T22:24:36.529Z,78.40
2018-12-01T22:27:06.215Z,79.20
2018-12-01T22:29:35.649Z,78.20
2018-12-01T22:32:06.115Z,78.20
2018-12-01T22:34:35.742Z,78.20
2018-12-01T22:37:06.281Z,78.10
2018-12-01T22:39:36.051Z,78.00
2018-12-01T22:42:05.362Z,77.90
2018-12-01T22:44:35.022Z,77.90
2018-12-01T22:47:04.554Z,77.60
2018-12-01T22:49:34.331Z,77.60
2018-12-01T22:52:04.627Z,77.60
2018-12-01T22:54:34.104Z,77.40
2018-12-01T22:57:03.607Z,77.30
2018-12-01T22:59:33.617Z,77.30
2018-12-01T23:02:03.149Z,77.30
2018-12-01T23:04:32.497Z,77.10
2018-12-01T23:07:02.130Z,76.80
2018-12-01T23:09:32.224Z,76.60
2018-12-01T23:12:01.799Z,76.70
2018-12-01T23:14:31.477Z,76.70
2018-12-01T23:17:01.288Z,77.00
2018-12-01T23:19:30.980Z,77.00
2018-12-01T23:22:00.754Z,77.10
2018-12-01T23:24:30.175Z,77.00
2018-12-01T23:26:59.665Z,77.30
2018-12-01T23:29:28.868Z,77.30
2018-12-01T23:31:58.920Z,77.50
2018-12-01T23:34:28.469Z,77.60
2018-12-01T23:36:57.829Z,77.70
2018-12-01T23:39:27.475Z,78.70
2018-12-01T23:41:57.321Z,78.20
2018-12-01T23:44:29.474Z,78.30
2018-12-01T23:46:58.884Z,78.40
2018-12-01T23:49:28.686Z,78.60
2018-12-01T23:51:58.309Z,78.60
2018-12-01T23:54:28.013Z,78.60
2018-12-01T23:56:58.130Z,78.70
2018-12-01T23:59:27.700Z,78.80
